Time;durP1;ratioP1;P1;durP2;ratioP2;P2;SDS_P1;SDS_P2;PMS_P1;PMS_P2;Temp;Humidity;BMP_temperature;BMP_pressure;BME280_temperature;BME280_humidity;BME280_pressure;Samples;Min_cycle;Max_cycle;Signal;HPM_P1;HPM_P2
2023/04/17 00:00:39;;;;;;;39.43;27.27;;;11.60;1.00;;;;;;4976745;28;20258;-84
2023/04/17 00:03:04;;;;;;;42.40;30.30;;;11.60;1.00;;;;;;4972164;28;20787;-84
2023/04/17 00:05:30;;;;;;;41.03;27.13;;;11.60;1.00;;;;;;4972504;28;20192;-83
2023/04/17 00:07:59;;;;;;;43.97;28.73;;;11.70;1.00;;;;;;4967298;28;20266;-84
2023/04/17 00:10:25;;;;;;;46.90;29.37;;;11.70;1.00;;;;;;4980497;28;20188;-84
2023/04/17 00:12:50;;;;;;;40.73;28.10;;;11.70;1.00;;;;;;4979586;28;20475;-84
2023/04/17 00:15:16;;;;;;;47.50;31.20;;;11.60;1.00;;;;;;4979422;28;20189;-84
2023/04/17 00:17:41;;;;;;;39.00;28.57;;;11.70;1.00;;;;;;4991796;28;20204;-84
2023/04/17 00:20:11;;;;;;;37.73;27.40;;;11.60;1.00;;;;;;4976289;28;20203;-83
2023/04/17 00:22:37;;;;;;;44.23;28.70;;;11.60;1.00;;;;;;4970601;28;20208;-83
2023/04/17 00:25:03;;;;;;;42.80;28.93;;;11.60;1.00;;;;;;4958384;28;20452;-83
2023/04/17 00:27:29;;;;;;;57.00;30.33;;;11.60;1.00;;;;;;4960803;28;20441;-84
2023/04/17 00:29:54;;;;;;;48.43;29.97;;;11.60;1.00;;;;;;4958021;28;20448;-84
2023/04/17 00:32:20;;;;;;;40.00;29.10;;;11.60;1.00;;;;;;4966266;28;20227;-83
2023/04/17 00:34:46;;;;;;;38.00;27.80;;;11.60;1.00;;;;;;4968124;28;20187;-82
2023/04/17 00:37:11;;;;;;;42.17;27.40;;;11.60;1.00;;;;;;4962883;28;20185;-84
2023/04/17 00:39:37;;;;;;;45.53;30.07;;;11.60;1.00;;;;;;4959624;28;20279;-83
2023/04/17 00:42:02;;;;;;;37.37;28.57;;;11.60;1.00;;;;;;4964149;28;20227;-83
2023/04/17 00:44:28;;;;;;;39.03;27.47;;;11.60;1.00;;;;;;4969837;28;20219;-84
2023/04/17 00:46:54;;;;;;;45.10;29.67;;;11.60;1.00;;;;;;4967019;28;20601;-83
2023/04/17 00:49:20;;;;;;;40.00;30.33;;;11.60;1.00;;;;;;4962803;28;20204;-83
2023/04/17 00:51:47;;;;;;;42.40;28.33;;;11.60;1.00;;;;;;4962915;28;20559;-84
2023/04/17 00:54:13;;;;;;;43.23;28.80;;;11.60;1.00;;;;;;4974215;28;20451;-83
2023/04/17 00:56:39;;;;;;;49.17;30.87;;;11.60;1.00;;;;;;4962985;28;20436;-84
2023/04/17 00:59:08;;;;;;;40.57;31.20;;;11.60;1.00;;;;;;4984107;28;20429;-84
2023/04/17 01:01:34;;;;;;;47.17;29.67;;;11.50;1.00;;;;;;4959097;28;20440;-82
2023/04/17 01:04:00;;;;;;;47.27;29.57;;;11.50;1.00;;;;;;4965864;28;20471;-83
2023/04/17 01:06:26;;;;;;;44.57;29.67;;;11.60;1.00;;;;;;4973553;28;20185;-83
2023/04/17 01:08:52;;;;;;;45.47;29.10;;;11.60;1.00;;;;;;4966085;28;20788;-83
2023/04/17 01:11:18;;;;;;;46.30;30.30;;;11.50;1.00;;;;;;4961972;28;20220;-83
2023/04/17 01:13:45;;;;;;;45.00;29.50;;;11.50;1.00;;;;;;4960065;28;20468;-83
2023/04/17 01:16:10;;;;;;;43.80;30.57;;;11.60;1.00;;;;;;4958336;28;20180;-83
2023/04/17 01:18:36;;;;;;;43.37;29.30;;;11.60;1.00;;;;;;4970874;28;20435;-84
2023/04/17 01:21:02;;;;;;;49.33;31.50;;;11.60;1.00;;;;;;4968037;28;20264;-83
2023/04/17 01:23:28;;;;;;;43.50;29.33;;;11.60;1.00;;;;;;4966074;28;20272;-83
2023/04/17 01:25:54;;;;;;;51.37;32.23;;;11.60;1.00;;;;;;4956856;28;20448;-84
2023/04/17 01:28:19;;;;;;;51.43;32.90;;;11.60;1.00;;;;;;4968491;28;20490;-84
2023/04/17 01:30:45;;;;;;;46.20;30.37;;;11.60;1.00;;;;;;4966873;28;20180;-83
2023/04/17 01:33:11;;;;;;;43.37;30.20;;;11.50;1.00;;;;;;4966227;28;20200;-84
2023/04/17 01:35:36;;;;;;;45.03;28.17;;;11.50;1.00;;;;;;4956794;28;20189;-84
2023/04/17 01:38:02;;;;;;;40.27;28.70;;;11.50;1.00;;;;;;4962996;28;20196;-84
2023/04/17 01:40:27;;;;;;;38.63;29.10;;;11.50;1.00;;;;;;4970223;28;20670;-84
2023/04/17 01:42:53;;;;;;;41.13;28.83;;;11.50;1.00;;;;;;4965570;28;20216;-83
2023/04/17 01:45:20;;;;;;;36.50;26.20;;;11.50;1.00;;;;;;4960487;28;20196;-84
2023/04/17 01:47:46;;;;;;;41.53;29.67;;;11.50;1.00;;;;;;4957102;28;20695;-84
2023/04/17 01:50:11;;;;;;;45.00;30.57;;;11.50;1.00;;;;;;4956471;28;20466;-84
2023/04/17 01:52:38;;;;;;;38.57;28.97;;;11.50;1.00;;;;;;4970830;28;20483;-83
2023/04/17 01:55:04;;;;;;;46.87;30.17;;;11.50;1.00;;;;;;4965784;28;20444;-83
2023/04/17 01:57:31;;;;;;;52.60;30.37;;;11.50;1.00;;;;;;4958082;28;21117;-83
2023/04/17 01:59:57;;;;;;;44.23;28.97;;;11.50;1.00;;;;;;4957628;28;20819;-84
2023/04/17 02:02:22;;;;;;;46.83;30.53;;;11.50;1.00;;;;;;4969812;28;20460;-83
2023/04/17 02:04:48;;;;;;;48.43;30.13;;;11.50;1.00;;;;;;4971619;28;20196;-83
2023/04/17 02:07:13;;;;;;;40.77;30.80;;;11.50;1.00;;;;;;4972291;28;20664;-84
2023/04/17 02:09:39;;;;;;;44.27;28.20;;;11.50;1.00;;;;;;4969273;28;20241;-82
2023/04/17 02:12:05;;;;;;;49.03;30.17;;;11.40;1.00;;;;;;4967875;28;20270;-84
2023/04/17 02:14:30;;;;;;;43.00;29.23;;;11.40;1.00;;;;;;4975729;28;20176;-85
2023/04/17 02:16:56;;;;;;;39.90;28.93;;;11.40;1.00;;;;;;4964676;28;20463;-84
2023/04/17 02:19:21;;;;;;;42.90;27.53;;;11.40;1.00;;;;;;4964122;28;20189;-83
2023/04/17 02:21:47;;;;;;;45.93;30.63;;;11.40;1.00;;;;;;4965208;28;20204;-83
2023/04/17 02:24:12;;;;;;;44.83;31.70;;;11.40;1.00;;;;;;4970807;28;20251;-84
2023/04/17 02:26:39;;;;;;;43.77;29.80;;;11.40;1.00;;;;;;4976016;28;20199;-84
2023/04/17 02:29:04;;;;;;;45.93;30.77;;;11.40;1.00;;;;;;4970275;28;20212;-84
2023/04/17 02:31:30;;;;;;;47.73;28.57;;;11.40;1.00;;;;;;4963816;28;20475;-83
2023/04/17 02:33:55;;;;;;;45.90;29.20;;;11.40;1.00;;;;;;4973470;28;20204;-84
2023/04/17 02:36:21;;;;;;;45.83;32.83;;;11.40;1.00;;;;;;4977336;28;20184;-84
2023/04/17 02:38:47;;;;;;;47.70;30.67;;;11.30;1.00;;;;;;4972906;28;20184;-83
2023/04/17 02:41:12;;;;;;;43.10;29.00;;;11.30;1.00;;;;;;4966295;28;20192;-85
2023/04/17 02:43:38;;;;;;;49.17;30.27;;;11.30;1.00;;;;;;4966411;28;20212;-84
2023/04/17 02:46:03;;;;;;;46.87;30.50;;;11.30;1.00;;;;;;4973360;28;20574;-83
2023/04/17 02:48:29;;;;;;;47.03;30.97;;;11.40;1.00;;;;;;4974939;28;20196;-84
2023/04/17 02:50:54;;;;;;;40.87;30.10;;;11.40;1.00;;;;;;4971354;28;20395;-85
2023/04/17 02:53:20;;;;;;;46.97;30.50;;;11.40;1.00;;;;;;4963952;28;20247;-85
2023/04/17 02:55:45;;;;;;;44.03;31.13;;;11.40;1.00;;;;;;4971161;28;20684;-84
2023/04/17 02:58:12;;;;;;;46.83;29.33;;;11.40;1.00;;;;;;4976302;28;20194;-83
2023/04/17 03:00:38;;;;;;;50.10;30.70;;;11.40;1.00;;;;;;4976841;28;20219;-84
2023/04/17 03:03:03;;;;;;;42.27;30.17;;;11.40;1.00;;;;;;4969741;28;21027;-85
2023/04/17 03:05:29;;;;;;;48.67;31.37;;;11.40;1.00;;;;;;4962788;28;20539;-84
2023/04/17 03:07:57;;;;;;;43.80;30.60;;;11.40;1.00;;;;;;4967553;28;20188;-83
2023/04/17 03:10:22;;;;;;;48.33;32.47;;;11.30;1.00;;;;;;4969800;28;20189;-84
2023/04/17 03:12:48;;;;;;;49.57;30.17;;;11.30;1.00;;;;;;4974347;28;21056;-84
2023/04/17 03:15:13;;;;;;;45.67;31.27;;;11.30;1.00;;;;;;4970784;28;20200;-84
2023/04/17 03:17:39;;;;;;;51.80;32.40;;;11.30;1.00;;;;;;4971536;28;20212;-84
2023/04/17 03:20:06;;;;;;;43.77;31.03;;;11.30;1.00;;;;;;4978917;28;20208;-84
2023/04/17 03:22:32;;;;;;;56.10;31.93;;;11.30;1.00;;;;;;4977138;28;20244;-84
2023/04/17 03:24:57;;;;;;;54.80;33.13;;;11.30;1.00;;;;;;4964850;28;20451;-85
2023/04/17 03:27:23;;;;;;;58.33;35.57;;;11.30;1.00;;;;;;4970408;28;20888;-84
2023/04/17 03:29:50;;;;;;;49.13;33.23;;;11.30;1.00;;;;;;4964161;28;20204;-82
2023/04/17 03:32:16;;;;;;;58.40;33.43;;;11.30;1.00;;;;;;4976964;28;20483;-83
2023/04/17 03:34:42;;;;;;;50.80;32.30;;;11.30;1.00;;;;;;4976972;28;20439;-83
2023/04/17 03:37:07;;;;;;;51.80;32.97;;;11.30;1.00;;;;;;4977935;28;20798;-84
2023/04/17 03:39:33;;;;;;;59.10;35.37;;;11.30;1.00;;;;;;4967074;28;20707;-83
2023/04/17 03:41:58;;;;;;;58.27;34.87;;;11.30;1.00;;;;;;4982787;28;20648;-83
2023/04/17 03:44:24;;;;;;;47.53;32.90;;;11.30;1.00;;;;;;4972133;28;20199;-85
2023/04/17 03:46:49;;;;;;;50.87;33.80;;;11.30;1.00;;;;;;4975441;28;20718;-84
2023/04/17 03:49:15;;;;;;;53.73;34.10;;;11.30;1.00;;;;;;4980520;28;20177;-84
2023/04/17 03:51:41;;;;;;;53.83;36.47;;;11.20;1.00;;;;;;4983822;28;20711;-82
2023/04/17 03:54:07;;;;;;;64.10;38.90;;;11.20;1.00;;;;;;4987701;28;20192;-83
2023/04/17 03:56:33;;;;;;;58.13;35.37;;;11.20;1.00;;;;;;4972330;28;20471;-84
2023/04/17 03:58:58;;;;;;;55.20;34.10;;;11.30;1.00;;;;;;4970142;28;20180;-82
2023/04/17 04:01:27;;;;;;;63.57;34.47;;;11.20;1.00;;;;;;4967837;28;20196;-83
2023/04/17 04:03:53;;;;;;;57.10;35.40;;;11.30;1.00;;;;;;4979455;28;20295;-83
2023/04/17 04:06:19;;;;;;;50.40;33.43;;;11.20;1.00;;;;;;4968146;28;20617;-84
2023/04/17 04:08:45;;;;;;;60.87;37.83;;;11.20;1.00;;;;;;4973558;28;20447;-83
2023/04/17 04:11:10;;;;;;;57.30;35.40;;;11.20;1.00;;;;;;4967425;28;20479;-83
2023/04/17 04:13:36;;;;;;;58.43;34.20;;;11.20;1.00;;;;;;4977427;28;20546;-82
2023/04/17 04:16:01;;;;;;;59.90;35.90;;;11.20;1.00;;;;;;4981912;28;20327;-83
2023/04/17 04:18:27;;;;;;;52.90;34.27;;;11.20;1.00;;;;;;4976656;28;20188;-84
2023/04/17 04:20:53;;;;;;;54.10;35.20;;;11.20;1.00;;;;;;4980824;28;20656;-82
2023/04/17 04:23:19;;;;;;;52.00;33.80;;;11.20;1.00;;;;;;4979632;28;20264;-83
2023/04/17 04:25:45;;;;;;;52.97;34.57;;;11.20;1.00;;;;;;4982331;28;20259;-82
2023/04/17 04:28:12;;;;;;;56.20;36.50;;;11.20;1.00;;;;;;4981420;28;20459;-83
2023/04/17 04:30:37;;;;;;;56.50;35.40;;;11.20;1.00;;;;;;4981512;28;20184;-83
2023/04/17 04:33:04;;;;;;;59.20;35.80;;;11.20;1.00;;;;;;4980913;28;20994;-83
2023/04/17 04:35:30;;;;;;;55.33;36.63;;;11.20;1.00;;;;;;4971188;28;20192;-83
2023/04/17 04:38:00;;;;;;;49.37;33.70;;;11.20;1.00;;;;;;4962058;28;20428;-83
2023/04/17 04:40:27;;;;;;;49.33;32.83;;;11.20;1.00;;;;;;4960159;28;20184;-82
2023/04/17 04:42:52;;;;;;;45.57;32.47;;;11.20;1.00;;;;;;4970264;28;20449;-83
2023/04/17 04:45:18;;;;;;;50.53;32.23;;;11.20;9.60;;;;;;4962250;28;20447;-82
2023/04/17 04:47:43;;;;;;;49.93;32.70;;;11.20;11.70;;;;;;4971146;28;20192;-82
2023/04/17 04:50:09;;;;;;;42.27;30.37;;;11.20;25.20;;;;;;4964035;28;20270;-83
2023/04/17 04:52:34;;;;;;;44.40;32.30;;;11.20;34.50;;;;;;4974209;28;20278;-83
2023/04/17 04:55:00;;;;;;;50.37;32.23;;;11.20;43.30;;;;;;4971768;28;20188;-83
2023/04/17 04:57:26;;;;;;;53.67;34.27;;;11.20;32.80;;;;;;4961942;28;20200;-81
2023/04/17 04:59:52;;;;;;;54.33;33.47;;;11.20;33.60;;;;;;4973075;28;20459;-83
2023/04/17 05:02:17;;;;;;;54.47;34.87;;;11.20;53.40;;;;;;4963110;28;20251;-83
2023/04/17 05:04:43;;;;;;;59.10;37.37;;;11.20;50.40;;;;;;4978952;28;20192;-83
2023/04/17 05:07:08;;;;;;;56.30;35.17;;;11.20;39.10;;;;;;4978880;28;20227;-84
2023/04/17 05:09:34;;;;;;;64.47;37.07;;;11.20;43.20;;;;;;4968232;28;20189;-84
2023/04/17 05:12:00;;;;;;;68.20;37.80;;;11.20;54.60;;;;;;4974058;28;20712;-82
2023/04/17 05:14:26;;;;;;;60.67;37.67;;;11.20;49.30;;;;;;4978109;28;20184;-84
2023/04/17 05:16:51;;;;;;;64.63;37.57;;;11.20;53.50;;;;;;4969373;28;20482;-83
2023/04/17 05:19:17;;;;;;;55.37;34.07;;;11.30;43.60;;;;;;4968791;28;20193;-82
2023/04/17 05:21:42;;;;;;;65.70;40.30;;;11.30;32.20;;;;;;4969671;28;20726;-82
2023/04/17 05:24:08;;;;;;;65.80;40.70;;;11.30;39.30;;;;;;4979210;28;20203;-84
2023/04/17 05:26:34;;;;;;;62.57;36.13;;;11.30;19.00;;;;;;4977900;28;20204;-83
2023/04/17 05:28:59;;;;;;;61.50;38.47;;;11.30;24.70;;;;;;4970687;28;20189;-82
2023/04/17 05:31:25;;;;;;;66.17;39.60;;;11.30;20.10;;;;;;4970716;28;20211;-83
2023/04/17 05:33:51;;;;;;;66.43;40.10;;;11.30;24.70;;;;;;4969039;28;20576;-84
2023/04/17 05:36:16;;;;;;;70.77;41.83;;;11.30;26.60;;;;;;4972408;28;20444;-83
2023/04/17 05:38:42;;;;;;;64.03;39.53;;;11.40;21.20;;;;;;4978360;28;20717;-83
2023/04/17 05:41:07;;;;;;;65.03;42.10;;;11.40;7.90;;;;;;4976341;28;20180;-82
2023/04/17 05:43:33;;;;;;;69.17;42.43;;;11.40;1.00;;;;;;4975064;28;20232;-83
2023/04/17 05:45:59;;;;;;;72.00;44.53;;;11.40;1.00;;;;;;4971957;28;20188;-83
2023/04/17 05:48:25;;;;;;;69.97;42.40;;;11.40;1.00;;;;;;4973323;28;20446;-82
2023/04/17 05:50:50;;;;;;;67.70;42.50;;;11.50;1.00;;;;;;4981176;28;20223;-83
2023/04/17 05:53:16;;;;;;;73.87;42.90;;;11.50;1.00;;;;;;4968847;28;20341;-83
2023/04/17 05:55:41;;;;;;;69.33;39.70;;;11.60;1.00;;;;;;4972201;28;20184;-83
2023/04/17 05:58:07;;;;;;;82.67;45.23;;;11.60;1.00;;;;;;4965684;28;20189;-84
2023/04/17 06:00:33;;;;;;;76.07;42.63;;;11.60;1.00;;;;;;4977400;28;20465;-84
2023/04/17 06:03:00;;;;;;;70.30;42.50;;;11.70;1.00;;;;;;4973206;28;20211;-83
2023/04/17 06:05:26;;;;;;;75.63;44.57;;;11.70;1.00;;;;;;4974355;28;20906;-82
2023/04/17 06:07:52;;;;;;;70.60;42.30;;;11.70;1.00;;;;;;4969979;28;21018;-84
2023/04/17 06:10:18;;;;;;;71.63;43.27;;;11.80;1.00;;;;;;4971465;28;20459;-83
2023/04/17 06:12:44;;;;;;;69.47;44.10;;;11.90;1.00;;;;;;4971668;28;21025;-83
2023/04/17 06:15:10;;;;;;;71.33;42.90;;;12.00;1.00;;;;;;4971940;28;20439;-83
2023/04/17 06:17:36;;;;;;;75.17;46.40;;;12.10;99.90;;;;;;4977170;28;20450;-83
2023/04/17 06:20:09;;;;;;;66.83;44.50;;;12.10;99.90;;;;;;4975022;28;20428;-83
2023/04/17 06:22:37;;;;;;;69.27;44.50;;;12.20;99.90;;;;;;4971665;28;20564;-83
2023/04/17 06:25:03;;;;;;;73.90;45.47;;;12.20;99.90;;;;;;4972959;28;20435;-84
2023/04/17 06:27:29;;;;;;;69.90;45.97;;;12.20;24.70;;;;;;4976954;28;20448;-83
2023/04/17 06:29:54;;;;;;;72.53;45.10;;;12.20;1.00;;;;;;4972937;28;20458;-83
2023/04/17 06:32:20;;;;;;;79.20;46.77;;;12.30;1.00;;;;;;4967434;28;20293;-83
2023/04/17 06:34:46;;;;;;;73.10;45.13;;;12.30;1.00;;;;;;4974729;28;20180;-84
2023/04/17 06:37:11;;;;;;;79.33;47.57;;;12.40;1.00;;;;;;4975615;28;20264;-83
2023/04/17 06:39:37;;;;;;;79.13;46.43;;;12.40;1.00;;;;;;4972024;28;20199;-83
2023/04/17 06:42:02;;;;;;;79.53;48.77;;;12.40;99.90;;;;;;4964444;28;20214;-83
2023/04/17 06:44:28;;;;;;;77.00;48.90;;;12.40;99.90;;;;;;4969790;28;20294;-83
2023/04/17 06:46:54;;;;;;;74.10;46.80;;;12.40;99.90;;;;;;4968923;28;20332;-84
2023/04/17 06:49:25;;;;;;;80.37;49.77;;;12.40;99.90;;;;;;4971437;28;20624;-83
2023/04/17 06:51:51;;;;;;;73.33;47.20;;;12.40;99.90;;;;;;4968440;28;20212;-83
2023/04/17 06:54:16;;;;;;;76.07;49.77;;;12.40;99.90;;;;;;4963044;28;20490;-83
2023/04/17 06:56:42;;;;;;;72.07;45.43;;;12.40;1.00;;;;;;4972184;28;20282;-84
2023/04/17 06:59:08;;;;;;;87.93;50.10;;;12.30;1.00;;;;;;4970117;28;20188;-83
2023/04/17 07:01:39;;;;;;;82.70;49.83;;;12.30;54.80;;;;;;4963051;28;20184;-83
2023/04/17 07:04:08;;;;;;;82.33;50.00;;;12.30;96.40;;;;;;4970387;28;20515;-84
2023/04/17 07:06:35;;;;;;;86.63;50.93;;;12.30;1.00;;;;;;4958262;28;20463;-84
2023/04/17 07:09:03;;;;;;;87.83;51.30;;;12.20;1.00;;;;;;4965332;28;21015;-84
2023/04/17 07:11:29;;;;;;;84.80;49.40;;;12.20;8.60;;;;;;4971976;28;20459;-84
2023/04/17 07:13:55;;;;;;;85.07;51.27;;;12.10;89.80;;;;;;4971123;28;20456;-83
2023/04/17 07:16:23;;;;;;;78.60;49.13;;;12.10;99.90;;;;;;4973985;28;20475;-86
2023/04/17 07:18:59;;;;;;;88.60;51.27;;;12.20;99.90;;;;;;4977922;28;20184;-84
2023/04/17 07:21:25;;;;;;;87.93;50.13;;;12.20;99.90;;;;;;4966375;28;20442;-84
2023/04/17 07:24:01;;;;;;;88.70;50.87;;;12.20;14.80;;;;;;4977475;28;20453;-84
2023/04/17 07:26:27;;;;;;;76.77;49.63;;;12.20;1.00;;;;;;4980336;28;20411;-84
2023/04/17 07:28:52;;;;;;;83.13;51.73;;;12.20;1.00;;;;;;5010761;23;20431;-83
2023/04/17 07:31:18;;;;;;;86.27;49.77;;;12.20;1.00;;;;;;5016656;28;20251;-84
2023/04/17 07:33:44;;;;;;;83.10;50.00;;;12.30;1.00;;;;;;4983118;28;20210;-84
2023/04/17 07:36:10;;;;;;;76.80;49.13;;;12.30;1.00;;;;;;4985080;28;20210;-84
2023/04/17 07:38:49;;;;;;;77.77;49.07;;;12.30;1.00;;;;;;4986571;28;20188;-84
2023/04/17 07:41:15;;;;;;;81.70;48.50;;;12.30;1.00;;;;;;4972500;28;20975;-84
2023/04/17 07:43:45;;;;;;;70.43;48.13;;;12.40;1.00;;;;;;4968987;28;20455;-84
2023/04/17 07:46:13;;;;;;;65.80;47.03;;;12.40;1.00;;;;;;4963773;28;20193;-84
2023/04/17 07:48:39;;;;;;;67.63;44.80;;;12.50;99.90;;;;;;4977964;28;21151;-84
2023/04/17 07:51:08;;;;;;;73.40;48.20;;;12.50;99.90;;;;;;4974580;28;20487;-84
2023/04/17 07:53:37;;;;;;;67.63;46.60;;;12.60;99.90;;;;;;4983584;28;20823;-84
2023/04/17 07:56:03;;;;;;;70.93;46.83;;;12.70;99.90;;;;;;4981542;28;20439;-86
2023/04/17 07:58:34;;;;;;;70.63;46.80;;;12.80;1.00;;;;;;4980873;28;20431;-84
2023/04/17 08:01:03;;;;;;;74.40;46.30;;;13.00;99.90;;;;;;4973622;28;20463;-84
2023/04/17 08:03:32;;;;;;;71.40;48.03;;;13.00;23.10;;;;;;4970440;28;20487;-85
2023/04/17 08:05:57;;;;;;;69.17;48.30;;;13.10;1.00;;;;;;4987593;28;20426;-84
2023/04/17 08:08:23;;;;;;;72.77;48.47;;;13.10;1.00;;;;;;4990991;28;20819;-83
2023/04/17 08:10:49;;;;;;;76.83;47.63;;;13.10;99.90;;;;;;4984547;28;20188;-82
2023/04/17 08:13:15;;;;;;;69.17;47.60;;;13.10;99.90;;;;;;4997156;28;20471;-85
2023/04/17 08:15:41;;;;;;;64.80;45.20;;;13.20;99.90;;;;;;4989644;28;20440;-84
2023/04/17 08:18:08;;;;;;;69.07;45.30;;;13.30;11.30;;;;;;4990790;28;20443;-83
2023/04/17 08:20:34;;;;;;;69.60;46.30;;;13.50;1.00;;;;;;4983516;28;20272;-83
2023/04/17 08:23:00;;;;;;;61.33;44.37;;;13.70;99.90;;;;;;4992774;28;20466;-84
2023/04/17 08:25:26;;;;;;;63.87;46.00;;;13.90;35.10;;;;;;4984103;28;20430;-84
2023/04/17 08:27:51;;;;;;;68.70;45.33;;;14.00;1.00;;;;;;4984254;28;20447;-84
2023/04/17 08:30:17;;;;;;;66.50;47.20;;;14.20;99.90;;;;;;4987099;28;20209;-83
2023/04/17 08:32:45;;;;;;;59.77;44.60;;;14.30;99.90;;;;;;4980459;28;20238;-84
2023/04/17 08:35:12;;;;;;;63.70;45.10;;;14.30;99.90;;;;;;4978868;28;20227;-83
2023/04/17 08:37:41;;;;;;;61.63;44.67;;;14.30;6.00;;;;;;4984095;28;20814;-84
2023/04/17 08:40:08;;;;;;;60.10;45.30;;;14.30;1.00;;;;;;4990043;28;20460;-85
2023/04/17 08:42:38;;;;;;;64.10;47.10;;;14.50;1.00;;;;;;4987314;28;20994;-85
2023/04/17 08:45:06;;;;;;;62.30;42.70;;;15.60;1.00;;;;;;4982810;28;20452;-85
2023/04/17 08:47:40;;;;;;;59.80;45.13;;;16.30;99.90;;;;;;4988742;28;20447;-83
2023/04/17 08:50:17;;;;;;;56.60;41.43;;;16.20;25.40;;;;;;4980125;28;20453;-85
2023/04/17 08:52:45;;;;;;;54.40;42.47;;;16.00;1.00;;;;;;4990403;28;20479;-84
2023/04/17 08:55:13;;;;;;;57.67;45.90;;;15.80;1.00;;;;;;4990391;28;20527;-86
2023/04/17 08:57:59;;;;;;;60.47;47.60;;;15.80;1.00;;;;;;5003144;28;20438;-84
2023/04/17 09:00:32;;;;;;;56.70;44.27;;;15.70;1.00;;;;;;4990957;28;20502;-84
2023/04/17 09:02:59;;;;;;;61.33;45.83;;;15.70;1.00;;;;;;5000293;28;20457;-84
2023/04/17 09:05:29;;;;;;;54.20;45.10;;;15.80;1.00;;;;;;4995005;28;20441;-84
2023/04/17 09:08:10;;;;;;;63.00;45.20;;;15.70;1.00;;;;;;4997757;28;20600;-83
2023/04/17 09:10:41;;;;;;;57.20;46.17;;;15.70;1.00;;;;;;4987033;28;20451;-84
2023/04/17 09:13:07;;;;;;;58.10;44.30;;;15.80;1.00;;;;;;4995290;28;20564;-84
2023/04/17 09:15:34;;;;;;;59.03;44.27;;;15.90;1.00;;;;;;4994179;28;20443;-86
2023/04/17 09:18:00;;;;;;;60.07;46.23;;;16.00;1.00;;;;;;4992731;28;20442;-86
2023/04/17 09:20:26;;;;;;;61.23;49.50;;;16.10;1.00;;;;;;4999807;28;20427;-86
2023/04/17 09:23:03;;;;;;;60.27;48.97;;;16.00;1.00;;;;;;5000420;28;20465;-85
2023/04/17 09:25:29;;;;;;;61.57;48.73;;;15.80;1.00;;;;;;5004996;28;20436;-86
2023/04/17 09:28:08;;;;;;;61.43;47.10;;;15.60;1.00;;;;;;5000891;28;20495;-85
2023/04/17 09:30:38;;;;;;;56.60;42.97;;;15.50;1.00;;;;;;4995154;28;20478;-84
2023/04/17 09:33:05;;;;;;;57.03;43.90;;;15.40;1.00;;;;;;4989973;28;20469;-85
2023/04/17 09:35:33;;;;;;;57.37;43.30;;;15.20;1.00;;;;;;5001364;28;20425;-85
2023/04/17 09:37:59;;;;;;;59.00;45.00;;;15.10;1.00;;;;;;5002840;28;20433;-83
2023/04/17 09:40:27;;;;;;;60.73;43.73;;;15.00;1.00;;;;;;4997978;28;20431;-85
2023/04/17 09:42:57;;;;;;;60.33;42.87;;;14.90;1.00;;;;;;4997940;28;20450;-84
2023/04/17 09:45:24;;;;;;;50.23;38.70;;;14.90;1.00;;;;;;4986120;28;20474;-82
2023/04/17 09:47:54;;;;;;;50.70;40.13;;;14.90;1.00;;;;;;4998561;28;20443;-82
2023/04/17 09:50:23;;;;;;;45.77;34.70;;;15.00;1.00;;;;;;5000680;28;20431;-83
2023/04/17 09:52:53;;;;;;;44.30;35.97;;;15.10;1.00;;;;;;4996785;28;20537;-81
2023/04/17 09:55:28;;;;;;;41.10;33.90;;;15.60;1.00;;;;;;4994092;28;20440;-83
2023/04/17 09:58:00;;;;;;;42.07;31.23;;;16.80;1.00;;;;;;5006494;28;20466;-84
2023/04/17 10:00:26;;;;;;;37.87;30.80;;;18.10;99.90;;;;;;4991681;28;20429;-82
2023/04/17 10:02:53;;;;;;;36.13;30.80;;;19.00;99.90;;;;;;5004387;28;21005;-83
2023/04/17 10:05:20;;;;;;;37.23;33.03;;;18.80;99.90;;;;;;5003460;28;20490;-83
2023/04/17 10:07:46;;;;;;;40.97;34.17;;;18.30;99.90;;;;;;4998454;28;20599;-83
2023/04/17 10:10:21;;;;;;;48.80;38.70;;;17.90;99.90;;;;;;4995830;28;20425;-82
2023/04/17 10:12:48;;;;;;;42.50;35.07;;;17.50;99.90;;;;;;5002891;28;20231;-81
2023/04/17 10:15:15;;;;;;;42.77;35.40;;;17.30;99.90;;;;;;4998821;28;20432;-83
2023/04/17 10:17:40;;;;;;;37.27;31.50;;;17.30;99.90;;;;;;4988753;28;21170;-84
2023/04/17 10:20:16;;;;;;;36.27;32.33;;;18.20;99.90;;;;;;4994256;28;20509;-83
2023/04/17 10:22:48;;;;;;;33.37;29.60;;;19.70;99.90;;;;;;5007974;28;20188;-84
2023/04/17 10:25:13;;;;;;;36.70;31.83;;;20.20;99.90;;;;;;4991920;28;20466;-84
2023/04/17 10:27:39;;;;;;;34.60;30.60;;;20.40;99.90;;;;;;5009363;28;20458;-85
2023/04/17 10:30:08;;;;;;;37.70;29.93;;;21.90;99.90;;;;;;4999700;28;20282;-85
2023/04/17 10:32:34;;;;;;;31.73;28.43;;;23.20;99.90;;;;;;5002999;28;20210;-86
2023/04/17 10:35:02;;;;;;;34.73;31.13;;;23.70;99.90;;;;;;4995966;28;20425;-85
2023/04/17 10:37:49;;;;;;;31.63;28.60;;;23.00;99.90;;;;;;4988765;28;20190;-85
2023/04/17 10:40:21;;;;;;;29.93;27.17;;;24.40;99.90;;;;;;4989983;28;20427;-85
2023/04/17 10:43:16;;;;;;;27.97;25.20;;;25.50;99.90;;;;;;5005503;28;20442;-85
2023/04/17 10:46:04;;;;;;;25.10;22.60;;;26.80;99.90;;;;;;5000694;28;20415;-87
2023/04/17 10:48:37;;;;;;;24.27;21.90;;;27.80;99.90;;;;;;5008023;28;20431;-87
2023/04/17 10:51:25;;;;;;;28.53;25.83;;;28.30;99.90;;;;;;4999326;28;20463;-85
2023/04/17 10:53:59;;;;;;;28.93;26.13;;;28.10;99.90;;;;;;4991182;28;20496;-87
2023/04/17 10:56:24;;;;;;;30.70;27.87;;;28.60;99.90;;;;;;5003282;28;20437;-85
2023/04/17 10:58:58;;;;;;;29.10;26.33;;;27.90;99.90;;;;;;4996479;28;20470;-86
2023/04/17 11:01:48;;;;;;;28.00;25.37;;;27.50;99.90;;;;;;4994622;28;20424;-83
2023/04/17 11:04:23;;;;;;;26.73;24.10;;;26.40;99.90;;;;;;4982813;28;20433;-83
2023/04/17 11:06:52;;;;;;;24.60;22.43;;;26.00;99.90;;;;;;5004543;28;21097;-83
2023/04/17 11:09:24;;;;;;;24.30;21.50;;;25.60;99.90;;;;;;5002845;28;20424;-82
2023/04/17 11:11:50;;;;;;;25.93;23.33;;;25.30;99.90;;;;;;4980811;28;20464;-80
2023/04/17 11:14:17;;;;;;;24.23;21.73;;;24.60;99.90;;;;;;4990248;28;20462;-80
2023/04/17 11:16:45;;;;;;;26.77;23.80;;;24.10;99.90;;;;;;4990082;28;20286;-80
2023/04/17 11:19:15;;;;;;;24.10;21.30;;;23.30;99.90;;;;;;4994098;28;20438;-82
2023/04/17 11:21:42;;;;;;;22.03;19.80;;;23.30;99.90;;;;;;4989241;28;20438;-81
2023/04/17 11:24:08;;;;;;;22.73;20.43;;;22.90;99.90;;;;;;4989819;28;20449;-80
2023/04/17 11:26:47;;;;;;;25.23;22.93;;;22.80;99.90;;;;;;4991756;28;20443;-81
2023/04/17 11:29:21;;;;;;;18.57;16.77;;;22.50;99.90;;;;;;4994621;28;20453;-82
2023/04/17 11:31:51;;;;;;;18.07;16.20;;;22.50;99.90;;;;;;4986128;28;20524;-83
2023/04/17 11:34:17;;;;;;;18.00;15.43;;;22.70;99.90;;;;;;4988353;28;20448;-82
2023/04/17 11:36:53;;;;;;;18.27;15.93;;;22.70;99.90;;;;;;4995652;28;20533;-83
2023/04/17 11:39:20;;;;;;;19.87;17.97;;;22.50;99.90;;;;;;4991009;28;20450;-83
2023/04/17 11:41:45;;;;;;;21.07;18.97;;;22.50;99.90;;;;;;4999739;28;20518;-82
2023/04/17 11:44:12;;;;;;;20.47;18.37;;;23.50;99.90;;;;;;4997928;28;20451;-81
2023/04/17 11:46:38;;;;;;;19.23;17.53;;;24.50;99.90;;;;;;4998413;28;20188;-84
2023/04/17 11:49:04;;;;;;;18.57;16.90;;;25.50;99.90;;;;;;4988426;28;20556;-82
2023/04/17 11:51:30;;;;;;;17.80;16.00;;;26.20;99.90;;;;;;5001528;28;20216;-83
2023/04/17 11:53:56;;;;;;;19.93;17.83;;;25.80;99.90;;;;;;4974935;28;20466;-80
2023/04/17 11:56:27;;;;;;;18.30;16.57;;;25.20;99.90;;;;;;4991403;28;20533;-81
2023/04/17 11:58:56;;;;;;;17.93;16.13;;;24.80;99.90;;;;;;4995992;28;20184;-83
2023/04/17 12:01:26;;;;;;;17.73;16.03;;;25.50;99.90;;;;;;4999255;28;20526;-82
2023/04/17 12:03:57;;;;;;;16.30;14.80;;;26.40;99.90;;;;;;5002606;28;20864;-81
2023/04/17 12:06:23;;;;;;;17.07;15.47;;;27.30;99.90;;;;;;4987681;28;20438;-82
2023/04/17 12:08:52;;;;;;;17.13;15.43;;;27.80;99.90;;;;;;4998540;28;20447;-81
2023/04/17 12:11:29;;;;;;;16.00;14.53;;;27.40;99.90;;;;;;4988845;28;20736;-82
2023/04/17 12:13:55;;;;;;;15.03;13.83;;;27.30;99.90;;;;;;5002137;28;21148;-82
2023/04/17 12:16:23;;;;;;;15.33;13.83;;;27.40;99.90;;;;;;4992419;28;20442;-83
2023/04/17 12:18:49;;;;;;;15.13;13.87;;;27.60;99.90;;;;;;4994564;28;20431;-82
2023/04/17 12:21:15;;;;;;;14.97;12.83;;;27.60;99.90;;;;;;4992484;28;20448;-82
2023/04/17 12:23:41;;;;;;;16.50;13.23;;;27.50;99.90;;;;;;4997415;28;20452;-84
2023/04/17 12:26:07;;;;;;;15.63;14.13;;;27.50;99.90;;;;;;5003098;28;20184;-84
2023/04/17 12:28:33;;;;;;;16.17;14.20;;;27.60;99.90;;;;;;4985080;28;20429;-82
2023/04/17 12:31:00;;;;;;;18.37;16.50;;;27.80;99.90;;;;;;4990057;28;20458;-83
2023/04/17 12:33:26;;;;;;;16.23;14.60;;;27.60;99.90;;;;;;4991845;28;20366;-82